createdAt,value
2023-01-19T00:01:33.230Z,19.48
2023-01-19T00:04:06.918Z,18.95
2023-01-19T00:06:34.886Z,18.64
2023-01-19T00:09:03.011Z,18.97
2023-01-19T00:11:30.991Z,19.55
2023-01-19T00:13:58.851Z,19.07
2023-01-19T00:16:28.195Z,18.87
2023-01-19T00:18:56.425Z,18.55
2023-01-19T00:21:24.672Z,18.72
2023-01-19T00:23:52.820Z,18.81
2023-01-19T00:26:22.355Z,18.18
2023-01-19T00:28:50.998Z,18.10
2023-01-19T00:31:21.585Z,18.12
2023-01-19T00:33:52.742Z,18.58
2023-01-19T00:36:21.048Z,18.39
2023-01-19T00:38:49.021Z,18.25
2023-01-19T00:41:17.181Z,18.03
2023-01-19T00:43:44.067Z,17.74
2023-01-19T00:46:12.161Z,17.93
2023-01-19T00:48:40.106Z,17.91
2023-01-19T00:51:09.354Z,18.57
2023-01-19T00:53:37.183Z,18.11
2023-01-19T00:56:07.137Z,18.67
2023-01-19T00:58:35.016Z,18.08
2023-01-19T01:01:04.810Z,18.55
2023-01-19T01:03:33.238Z,18.70
2023-01-19T01:06:01.590Z,17.99
2023-01-19T01:08:30.978Z,17.34
2023-01-19T01:10:58.879Z,17.68
2023-01-19T01:13:28.109Z,17.57
2023-01-19T01:15:57.717Z,17.25
2023-01-19T01:18:26.287Z,17.04
2023-01-19T01:20:56.215Z,16.90
2023-01-19T01:23:24.285Z,19.69
2023-01-19T01:25:53.768Z,20.04
2023-01-19T01:28:21.785Z,20.01
2023-01-19T01:30:53.828Z,18.98
2023-01-19T01:33:39.956Z,18.19
2023-01-19T01:36:09.873Z,18.07
2023-01-19T01:38:38.977Z,18.93
2023-01-19T01:41:09.778Z,18.13
2023-01-19T01:43:47.791Z,18.63
2023-01-19T01:46:17.411Z,18.26
2023-01-19T01:48:53.131Z,18.25
2023-01-19T01:51:29.392Z,18.74
2023-01-19T01:54:14.072Z,18.64
2023-01-19T01:57:00.687Z,19.37
2023-01-19T01:59:39.002Z,19.73
2023-01-19T02:02:28.734Z,19.22
2023-01-19T02:05:04.263Z,19.26
2023-01-19T02:07:58.980Z,19.23
2023-01-19T02:10:44.423Z,19.62
2023-01-19T02:13:23.560Z,21.36
2023-01-19T02:15:53.725Z,20.84
2023-01-19T02:18:24.268Z,19.85
2023-01-19T02:21:04.746Z,19.85
2023-01-19T02:23:53.483Z,19.12
2023-01-19T02:26:25.190Z,19.28
2023-01-19T02:28:58.399Z,19.54
2023-01-19T02:31:30.807Z,24.13
2023-01-19T02:34:00.835Z,26.73
2023-01-19T02:36:36.959Z,32.91
2023-01-19T02:39:09.661Z,33.00
2023-01-19T02:44:35.549Z,19.61
2023-01-19T02:47:04.175Z,18.19
2023-01-19T02:49:34.236Z,17.95
2023-01-19T02:52:04.245Z,17.43
2023-01-19T02:54:49.609Z,17.23
2023-01-19T02:57:43.610Z,16.52
2023-01-19T03:00:28.085Z,16.15
2023-01-19T03:03:16.351Z,15.94
2023-01-19T03:05:57.167Z,16.16
2023-01-19T03:08:36.966Z,15.97
2023-01-19T03:11:09.817Z,16.42
2023-01-19T03:13:46.787Z,15.49
2023-01-19T03:16:22.655Z,15.56
2023-01-19T03:18:54.957Z,15.30
2023-01-19T03:21:29.596Z,16.04
2023-01-19T03:24:03.530Z,16.41
2023-01-19T03:26:40.137Z,15.58
2023-01-19T03:29:12.176Z,15.88
2023-01-19T03:31:45.995Z,15.15
2023-01-19T03:34:17.976Z,15.69
2023-01-19T03:36:54.239Z,15.55
2023-01-19T03:39:24.472Z,15.98
2023-01-19T03:41:59.727Z,15.94
2023-01-19T03:44:31.342Z,14.89
2023-01-19T03:47:00.940Z,15.18
2023-01-19T03:49:32.359Z,14.94
2023-01-19T03:52:00.852Z,14.59
2023-01-19T03:54:29.281Z,15.10
2023-01-19T03:56:58.528Z,15.27
2023-01-19T03:59:26.529Z,14.97
2023-01-19T04:01:54.744Z,14.76
2023-01-19T04:04:25.663Z,14.97
2023-01-19T04:07:21.928Z,15.10
2023-01-19T04:09:53.139Z,15.27
2023-01-19T04:12:22.647Z,15.20
2023-01-19T04:14:50.780Z,15.60
2023-01-19T04:17:19.008Z,14.96
2023-01-19T04:19:46.903Z,14.57
2023-01-19T04:22:17.054Z,14.56
2023-01-19T04:25:11.088Z,14.61
2023-01-19T04:27:40.362Z,15.05
2023-01-19T04:30:10.018Z,15.02
2023-01-19T04:32:38.272Z,14.46
2023-01-19T04:35:07.045Z,15.15
2023-01-19T04:37:34.998Z,14.62
2023-01-19T04:40:02.973Z,14.93
2023-01-19T04:42:30.908Z,15.20
2023-01-19T04:45:00.172Z,15.04
2023-01-19T04:47:28.082Z,15.01
2023-01-19T04:49:56.058Z,15.47
2023-01-19T04:52:24.045Z,15.45
2023-01-19T04:54:52.098Z,16.35
2023-01-19T04:57:19.985Z,17.00
2023-01-19T05:00:00.731Z,18.96
2023-01-19T05:02:30.033Z,18.04
2023-01-19T05:04:57.941Z,18.26
2023-01-19T05:07:25.938Z,18.25
2023-01-19T05:09:53.945Z,18.00
2023-01-19T05:12:22.439Z,18.06
2023-01-19T05:14:50.578Z,17.92
2023-01-19T05:17:18.462Z,17.54
2023-01-19T05:19:47.851Z,18.29
2023-01-19T05:22:16.689Z,19.99
2023-01-19T05:24:44.673Z,21.31
2023-01-19T05:27:13.278Z,21.84
2023-01-19T05:29:41.203Z,22.15
2023-01-19T05:32:09.118Z,21.56
2023-01-19T05:34:37.130Z,26.06
2023-01-19T05:37:06.565Z,63.69
2023-01-19T05:39:34.695Z,67.31
2023-01-19T05:42:02.597Z,53.48
2023-01-19T05:44:30.511Z,36.18
2023-01-19T05:46:58.513Z,29.79
2023-01-19T05:49:26.481Z,22.75
2023-01-19T05:51:54.443Z,21.92
2023-01-19T05:54:23.933Z,19.32
2023-01-19T05:56:51.850Z,18.75
2023-01-19T05:59:24.119Z,18.46
2023-01-19T06:01:52.395Z,19.87
2023-01-19T06:04:21.249Z,19.02
2023-01-19T06:06:49.548Z,19.92
2023-01-19T06:09:18.256Z,20.22
2023-01-19T06:11:48.429Z,21.21
2023-01-19T06:14:16.384Z,22.56
2023-01-19T06:16:44.348Z,22.93
2023-01-19T06:19:12.552Z,20.95
2023-01-19T06:21:40.785Z,22.84
2023-01-19T06:24:08.968Z,22.77
2023-01-19T06:26:37.433Z,21.81
2023-01-19T06:29:06.709Z,20.41
2023-01-19T06:31:34.708Z,20.45
2023-01-19T06:34:03.002Z,19.02
2023-01-19T06:36:31.192Z,19.26
2023-01-19T06:38:59.203Z,20.05
2023-01-19T06:41:27.096Z,19.79
2023-01-19T06:43:55.047Z,19.58
2023-01-19T06:46:24.343Z,19.22
2023-01-19T06:48:52.238Z,19.43
2023-01-19T06:51:21.574Z,19.53
2023-01-19T06:53:49.510Z,18.87
2023-01-19T06:56:17.409Z,18.95
2023-01-19T06:58:47.610Z,19.42
2023-01-19T07:01:16.028Z,19.34
2023-01-19T07:03:46.882Z,19.63
2023-01-19T07:06:14.938Z,20.91
2023-01-19T07:08:42.859Z,22.31
2023-01-19T07:11:24.658Z,25.50
2023-01-19T07:13:57.625Z,21.73
2023-01-19T07:16:25.663Z,20.67
2023-01-19T07:18:54.973Z,19.16
2023-01-19T07:21:23.716Z,19.01
2023-01-19T07:23:52.716Z,18.73
2023-01-19T07:26:22.049Z,18.78
2023-01-19T07:28:50.465Z,18.53
2023-01-19T07:31:19.510Z,19.38
2023-01-19T07:33:48.491Z,19.85
2023-01-19T07:36:17.771Z,20.38
2023-01-19T07:38:45.662Z,20.49
2023-01-19T07:41:13.946Z,20.30
2023-01-19T07:43:41.864Z,20.13
2023-01-19T07:46:09.894Z,20.43
2023-01-19T07:48:37.792Z,20.04
2023-01-19T07:51:10.459Z,19.46
2023-01-19T07:53:41.925Z,19.07
2023-01-19T07:56:10.241Z,18.30
2023-01-19T07:58:38.344Z,18.86
2023-01-19T08:01:08.267Z,18.63
2023-01-19T08:03:36.211Z,18.16
2023-01-19T08:06:05.147Z,17.14
2023-01-19T08:08:34.706Z,17.71
2023-01-19T08:11:03.939Z,17.68
2023-01-19T08:13:31.847Z,17.09
2023-01-19T08:15:59.813Z,17.96
2023-01-19T08:18:27.722Z,17.07
2023-01-19T08:20:55.657Z,17.12
2023-01-19T08:23:23.671Z,17.02
2023-01-19T08:25:51.497Z,16.69
2023-01-19T08:28:21.033Z,17.66
2023-01-19T08:30:54.170Z,18.99
2023-01-19T08:33:23.389Z,18.21
2023-01-19T08:35:54.629Z,17.68
2023-01-19T08:38:22.832Z,17.73
2023-01-19T08:40:50.765Z,17.68
2023-01-19T08:43:20.605Z,16.58
2023-01-19T08:45:53.478Z,16.41
2023-01-19T08:48:23.562Z,16.48
2023-01-19T08:50:53.135Z,17.81
2023-01-19T08:53:23.539Z,17.26
2023-01-19T08:55:57.336Z,16.63
2023-01-19T08:58:26.658Z,16.13
2023-01-19T09:00:54.766Z,16.77
2023-01-19T09:03:23.605Z,20.20
2023-01-19T09:05:51.785Z,17.08
2023-01-19T09:08:19.683Z,17.00
2023-01-19T09:10:50.462Z,17.21
2023-01-19T09:13:21.606Z,16.40
2023-01-19T09:15:50.933Z,16.61
2023-01-19T09:18:21.072Z,18.32
2023-01-19T09:20:50.583Z,17.81
2023-01-19T09:23:20.256Z,17.41
2023-01-19T09:25:48.885Z,18.88
2023-01-19T09:28:18.588Z,24.07
2023-01-19T09:30:46.639Z,18.39
2023-01-19T09:33:17.935Z,17.60
2023-01-19T09:35:47.747Z,19.78
2023-01-19T09:38:17.585Z,21.25
2023-01-19T09:40:49.336Z,20.86
2023-01-19T09:43:30.972Z,19.50
2023-01-19T09:46:00.937Z,20.30
2023-01-19T09:48:45.822Z,19.03
2023-01-19T09:51:18.665Z,17.06
2023-01-19T09:53:56.994Z,17.21
2023-01-19T09:56:26.101Z,16.99
2023-01-19T09:58:54.171Z,18.79
2023-01-19T10:01:37.751Z,18.26
2023-01-19T10:04:32.179Z,16.65
2023-01-19T10:07:19.332Z,15.83
2023-01-19T10:10:06.017Z,17.74
2023-01-19T10:12:53.454Z,15.98
2023-01-19T10:15:33.888Z,16.48
2023-01-19T10:18:13.759Z,18.49
2023-01-19T10:20:49.104Z,17.10
2023-01-19T10:23:36.660Z,16.85
2023-01-19T10:26:10.913Z,16.70
2023-01-19T10:28:40.940Z,14.70
2023-01-19T10:31:10.153Z,13.86
2023-01-19T10:33:39.533Z,14.07
2023-01-19T10:36:19.219Z,16.58
2023-01-19T10:38:48.787Z,16.37
2023-01-19T10:41:22.294Z,17.22
2023-01-19T10:43:51.010Z,15.57
2023-01-19T10:46:26.925Z,14.19
2023-01-19T10:48:56.322Z,17.48
2023-01-19T10:51:25.914Z,18.29
2023-01-19T10:54:00.660Z,18.84
2023-01-19T10:56:33.653Z,15.46
2023-01-19T10:59:04.391Z,15.83
2023-01-19T11:01:36.843Z,15.50
2023-01-19T11:04:23.620Z,14.06
2023-01-19T11:06:52.863Z,13.87
2023-01-19T11:09:23.556Z,14.50
2023-01-19T11:11:54.342Z,14.22
2023-01-19T11:14:25.620Z,13.78
2023-01-19T11:16:57.246Z,14.93
2023-01-19T11:19:29.912Z,15.45
2023-01-19T11:22:26.954Z,14.59
2023-01-19T11:24:59.977Z,14.22
2023-01-19T11:27:29.483Z,14.74
2023-01-19T11:30:09.731Z,15.04
2023-01-19T11:32:37.959Z,14.71
2023-01-19T11:35:34.712Z,15.18
2023-01-19T11:38:27.191Z,14.76
2023-01-19T11:40:57.592Z,14.02
2023-01-19T11:43:47.480Z,13.94
2023-01-19T11:46:17.750Z,14.36
2023-01-19T11:48:56.672Z,16.86
2023-01-19T11:51:31.507Z,15.78
2023-01-19T11:54:07.895Z,14.81
2023-01-19T11:56:36.218Z,14.83
2023-01-19T11:59:04.963Z,14.18
2023-01-19T12:01:37.729Z,13.60
2023-01-19T12:04:14.303Z,14.13
2023-01-19T12:06:47.730Z,14.37
2023-01-19T12:09:23.148Z,15.06
2023-01-19T12:11:58.328Z,13.50
2023-01-19T12:14:37.364Z,14.59
2023-01-19T12:17:13.897Z,14.06
2023-01-19T12:19:50.518Z,14.51
2023-01-19T12:22:21.408Z,14.09
2023-01-19T12:24:59.513Z,12.37
2023-01-19T12:27:40.887Z,12.31
2023-01-19T12:30:20.094Z,12.32
2023-01-19T12:32:48.204Z,12.36
2023-01-19T12:35:53.721Z,12.85
2023-01-19T12:38:39.945Z,12.90
2023-01-19T12:41:25.413Z,12.81
2023-01-19T12:44:22.302Z,12.36
2023-01-19T12:46:55.071Z,12.57
2023-01-19T12:49:28.510Z,12.15
2023-01-19T12:52:14.350Z,11.92
2023-01-19T12:54:50.975Z,11.95
2023-01-19T12:57:25.100Z,13.48
2023-01-19T12:59:58.824Z,11.80
2023-01-19T13:02:45.342Z,12.05
2023-01-19T13:05:19.127Z,11.11
2023-01-19T13:08:34.815Z,10.66
2023-01-19T13:11:20.887Z,11.18
2023-01-19T13:14:25.380Z,11.23
2023-01-19T13:17:28.871Z,11.21
2023-01-19T13:20:36.083Z,10.98
2023-01-19T13:23:20.734Z,10.46
2023-01-19T13:25:59.920Z,9.70
2023-01-19T13:28:34.994Z,9.29
2023-01-19T13:31:05.067Z,9.09
2023-01-19T13:33:48.679Z,8.92
2023-01-19T13:36:24.008Z,8.78
2023-01-19T13:38:53.437Z,9.75
2023-01-19T13:41:25.683Z,8.84
2023-01-19T13:44:03.095Z,9.10
2023-01-19T13:46:33.540Z,9.28
2023-01-19T13:49:06.229Z,8.71
2023-01-19T13:51:35.521Z,8.52
2023-01-19T13:54:03.704Z,9.31
2023-01-19T13:56:31.680Z,9.94
2023-01-19T13:59:09.683Z,10.19
2023-01-19T14:01:39.559Z,10.71
2023-01-19T14:04:17.241Z,10.32
2023-01-19T14:06:49.791Z,10.36
2023-01-19T14:09:20.929Z,10.36
2023-01-19T14:12:06.704Z,10.41
2023-01-19T14:14:34.914Z,11.92
2023-01-19T14:17:02.864Z,13.50
2023-01-19T14:19:31.024Z,12.55
2023-01-19T14:22:02.722Z,12.25
2023-01-19T14:24:33.132Z,12.39
2023-01-19T14:27:19.871Z,13.55
2023-01-19T14:29:50.615Z,14.15
2023-01-19T14:32:20.900Z,14.67
2023-01-19T14:34:51.252Z,15.71
2023-01-19T14:37:24.541Z,15.83
2023-01-19T14:39:57.578Z,14.07
2023-01-19T14:42:29.443Z,14.34
2023-01-19T14:45:01.820Z,14.37
2023-01-19T14:47:38.294Z,14.56
2023-01-19T14:50:18.946Z,14.79
2023-01-19T14:52:55.854Z,14.89
2023-01-19T14:55:30.054Z,15.20
2023-01-19T14:57:57.949Z,15.37
2023-01-19T15:00:27.123Z,15.34
2023-01-19T15:02:55.183Z,14.79
2023-01-19T15:05:24.717Z,14.75
2023-01-19T15:07:54.146Z,15.57
2023-01-19T15:10:24.865Z,15.30
2023-01-19T15:12:55.821Z,15.92
2023-01-19T15:15:30.408Z,15.58
2023-01-19T15:17:59.608Z,16.19
2023-01-19T15:20:27.648Z,17.04
2023-01-19T15:22:56.956Z,16.77
2023-01-19T15:25:26.679Z,17.78
2023-01-19T15:27:59.690Z,19.76
2023-01-19T15:30:31.004Z,19.09
2023-01-19T15:32:59.106Z,19.32
2023-01-19T15:35:27.353Z,16.98
2023-01-19T15:37:56.728Z,16.18
2023-01-19T15:40:24.992Z,18.61
2023-01-19T15:42:52.838Z,19.53
2023-01-19T15:45:36.291Z,17.94
2023-01-19T15:48:06.686Z,13.68
2023-01-19T15:50:37.590Z,10.41
2023-01-19T15:53:07.369Z,10.04
2023-01-19T15:55:35.272Z,11.80
2023-01-19T15:58:03.125Z,13.99
2023-01-19T16:00:35.565Z,14.90
2023-01-19T16:03:04.684Z,12.17
2023-01-19T16:05:42.672Z,11.78
2023-01-19T16:08:13.037Z,11.78
2023-01-19T16:10:41.755Z,10.85
2023-01-19T16:13:10.528Z,10.74
2023-01-19T16:15:39.656Z,11.76
2023-01-19T16:18:07.913Z,11.67
2023-01-19T16:20:35.792Z,12.36
2023-01-19T16:23:19.040Z,12.73
2023-01-19T16:25:57.107Z,13.06
2023-01-19T16:28:25.399Z,13.62
2023-01-19T16:30:53.984Z,14.12
2023-01-19T16:33:22.081Z,14.44
2023-01-19T16:35:50.260Z,13.71
2023-01-19T16:38:18.302Z,14.19
2023-01-19T16:40:50.612Z,14.79
2023-01-19T16:43:18.650Z,14.32
2023-01-19T16:46:00.816Z,15.56
2023-01-19T16:48:29.454Z,15.12
2023-01-19T16:51:02.696Z,15.57
2023-01-19T16:53:35.481Z,16.65
2023-01-19T16:56:07.551Z,16.05
2023-01-19T16:58:37.498Z,16.69
2023-01-19T17:01:11.180Z,17.44
2023-01-19T17:03:39.514Z,18.84
2023-01-19T17:06:08.587Z,19.41
2023-01-19T17:08:37.332Z,14.45
2023-01-19T17:11:12.613Z,13.20
2023-01-19T17:13:40.841Z,13.80
2023-01-19T17:16:09.404Z,14.82
2023-01-19T17:18:38.797Z,16.24
2023-01-19T17:21:09.207Z,15.07
2023-01-19T17:23:38.169Z,13.90
2023-01-19T17:26:06.694Z,13.93
2023-01-19T17:28:37.576Z,14.18
2023-01-19T17:31:06.574Z,16.13
2023-01-19T17:33:35.390Z,16.63
2023-01-19T17:36:04.305Z,16.14
2023-01-19T17:38:32.195Z,16.51
2023-01-19T17:41:00.261Z,18.40
2023-01-19T17:43:28.190Z,17.70
2023-01-19T17:45:57.547Z,15.68
2023-01-19T17:48:25.415Z,15.20
2023-01-19T17:50:54.181Z,15.14
2023-01-19T17:53:22.123Z,14.55
2023-01-19T17:55:50.032Z,13.67
2023-01-19T17:58:17.879Z,13.78
2023-01-19T18:00:45.865Z,14.02
2023-01-19T18:03:15.191Z,14.50
2023-01-19T18:05:43.165Z,13.71
2023-01-19T18:08:11.077Z,13.90
2023-01-19T18:10:38.986Z,14.61
2023-01-19T18:13:06.883Z,14.48
2023-01-19T18:15:34.778Z,14.31
2023-01-19T18:18:02.680Z,14.76
2023-01-19T18:20:32.526Z,14.75
2023-01-19T18:23:00.427Z,14.82
2023-01-19T18:25:28.315Z,15.30
2023-01-19T18:27:56.211Z,15.01
2023-01-19T18:30:24.372Z,16.96
2023-01-19T18:32:52.577Z,19.96
2023-01-19T18:35:20.614Z,24.17
2023-01-19T18:37:49.995Z,23.59
2023-01-19T18:40:18.516Z,21.06
2023-01-19T18:42:46.773Z,20.92
2023-01-19T18:45:14.771Z,23.03
2023-01-19T18:47:42.771Z,24.91
2023-01-19T18:50:14.085Z,25.37
2023-01-19T18:52:42.239Z,23.80
2023-01-19T18:55:11.694Z,24.87
2023-01-19T18:57:39.632Z,22.52
2023-01-19T19:00:08.691Z,22.06
2023-01-19T19:02:36.635Z,22.20
2023-01-19T19:05:04.958Z,21.43
2023-01-19T19:07:33.435Z,17.35
2023-01-19T19:10:01.372Z,15.30
2023-01-19T19:12:30.723Z,13.26
2023-01-19T19:14:58.689Z,12.60
2023-01-19T19:17:26.620Z,13.17
2023-01-19T19:19:54.736Z,15.53
2023-01-19T19:22:24.813Z,18.43
2023-01-19T19:24:53.524Z,17.93
2023-01-19T19:27:21.435Z,16.35
2023-01-19T19:29:50.663Z,13.20
2023-01-19T19:32:20.528Z,13.60
2023-01-19T19:34:50.484Z,13.98
2023-01-19T19:37:18.511Z,13.70
2023-01-19T19:39:46.407Z,15.69
2023-01-19T19:42:17.151Z,15.88
2023-01-19T19:44:45.088Z,17.16
2023-01-19T19:47:14.454Z,16.76
2023-01-19T19:49:42.332Z,16.60
2023-01-19T19:52:10.258Z,16.82
2023-01-19T19:54:38.562Z,15.96
2023-01-19T19:57:06.471Z,15.79
2023-01-19T19:59:34.461Z,15.41
2023-01-19T20:02:02.414Z,14.38
2023-01-19T20:04:31.866Z,14.81
2023-01-19T20:07:00.235Z,14.78
2023-01-19T20:09:28.426Z,16.15
2023-01-19T20:11:56.832Z,15.82
2023-01-19T20:14:24.903Z,15.15
2023-01-19T20:16:54.332Z,14.95
2023-01-19T20:19:22.456Z,15.65
2023-01-19T20:21:52.266Z,15.54
2023-01-19T20:24:21.766Z,16.62
2023-01-19T20:26:52.484Z,17.11
2023-01-19T20:29:21.682Z,18.09
2023-01-19T20:31:52.288Z,18.41
2023-01-19T20:34:22.665Z,17.45
2023-01-19T20:36:54.000Z,32.60
2023-01-19T20:39:23.923Z,34.24
2023-01-19T20:41:52.612Z,29.25
2023-01-19T20:44:23.521Z,25.01
2023-01-19T20:46:52.183Z,22.13
2023-01-19T20:49:20.320Z,20.87
2023-01-19T20:51:48.370Z,21.51
2023-01-19T20:54:20.421Z,21.92
2023-01-19T20:56:48.953Z,20.76
2023-01-19T20:59:16.980Z,18.45
2023-01-19T21:01:45.489Z,17.74
2023-01-19T21:04:13.893Z,17.69
2023-01-19T21:06:42.629Z,18.08
2023-01-19T21:09:11.339Z,17.48
2023-01-19T21:11:40.994Z,18.45
2023-01-19T21:14:08.991Z,19.61
2023-01-19T21:16:37.424Z,18.84
2023-01-19T21:19:06.541Z,19.33
2023-01-19T21:21:34.533Z,19.43
2023-01-19T21:24:04.036Z,19.93
2023-01-19T21:26:33.564Z,20.93
2023-01-19T21:29:04.114Z,20.85
2023-01-19T21:31:32.398Z,20.71
2023-01-19T21:34:00.681Z,20.34
2023-01-19T21:36:28.734Z,19.62
2023-01-19T21:39:00.513Z,20.49
2023-01-19T21:41:29.909Z,20.56
2023-01-19T21:43:58.540Z,20.11
2023-01-19T21:46:29.459Z,20.15
2023-01-19T21:48:58.154Z,20.39
2023-01-19T21:51:26.300Z,21.24
2023-01-19T21:53:56.050Z,22.22
2023-01-19T21:56:23.986Z,21.21
2023-01-19T21:58:51.980Z,21.59
2023-01-19T22:01:20.769Z,21.70
2023-01-19T22:03:50.585Z,21.27
2023-01-19T22:06:18.477Z,21.49
2023-01-19T22:09:13.078Z,21.72
2023-01-19T22:11:41.017Z,21.54
2023-01-19T22:14:08.952Z,22.16
2023-01-19T22:16:36.936Z,22.17
2023-01-19T22:19:08.134Z,23.01
2023-01-19T22:21:36.930Z,22.85
2023-01-19T22:24:06.703Z,23.66
2023-01-19T22:26:36.884Z,23.88
2023-01-19T22:29:11.019Z,23.96
2023-01-19T22:31:40.636Z,24.15
2023-01-19T22:34:10.876Z,24.66
2023-01-19T22:36:39.508Z,24.12
2023-01-19T22:39:10.461Z,23.61
2023-01-19T22:41:40.750Z,23.25
2023-01-19T22:44:11.973Z,22.81
2023-01-19T22:46:40.116Z,22.11
2023-01-19T22:49:13.716Z,22.25
2023-01-19T22:51:42.508Z,21.41
2023-01-19T22:54:11.321Z,21.58
2023-01-19T22:56:40.881Z,21.00
2023-01-19T22:59:09.751Z,21.09
2023-01-19T23:01:39.904Z,21.51
2023-01-19T23:04:13.211Z,22.96
2023-01-19T23:06:41.099Z,24.96
2023-01-19T23:09:13.124Z,24.12
2023-01-19T23:11:43.317Z,24.20
2023-01-19T23:14:16.933Z,23.18
2023-01-19T23:16:44.922Z,21.37
2023-01-19T23:19:16.987Z,20.36
2023-01-19T23:21:45.949Z,20.09
2023-01-19T23:24:13.804Z,22.57
2023-01-19T23:26:41.663Z,22.67
2023-01-19T23:29:13.136Z,22.49
2023-01-19T23:31:44.659Z,22.22
2023-01-19T23:34:15.243Z,22.63
2023-01-19T23:36:44.429Z,21.96
2023-01-19T23:39:15.318Z,21.72
2023-01-19T23:41:43.589Z,22.84
2023-01-19T23:44:11.510Z,22.58
2023-01-19T23:46:39.905Z,23.24
2023-01-19T23:49:07.761Z,22.63
2023-01-19T23:51:37.010Z,22.65
2023-01-19T23:54:05.126Z,22.81
2023-01-19T23:56:35.508Z,23.04
2023-01-19T23:59:05.591Z,22.74
